Time;durP1;ratioP1;P1;durP2;ratioP2;P2;SDS_P1;SDS_P2;PMS_P1;PMS_P2;Temp;Humidity;BMP_temperature;BMP_pressure;BME280_temperature;BME280_humidity;BME280_pressure;Samples;Min_cycle;Max_cycle;Signal;HPM_P1;HPM_P2
2022/11/23 00:02:19;;;;;;;1.50;0.50;;;9.80;99.90;;;;;;6266982;28;19975;-86
2022/11/23 00:05:21;;;;;;;2.97;1.05;;;9.70;99.90;;;;;;6264502;28;20049;-84
2022/11/23 00:08:23;;;;;;;6.03;1.63;;;9.60;99.90;;;;;;6263602;28;20061;-84
2022/11/23 00:11:27;;;;;;;5.38;1.33;;;9.60;99.90;;;;;;6262980;28;20057;-85
2022/11/23 00:14:28;;;;;;;1.20;0.47;;;9.50;99.90;;;;;;6263196;28;20092;-84
2022/11/23 00:17:32;;;;;;;2.20;0.38;;;9.50;99.90;;;;;;6262120;28;20117;-84
2022/11/23 00:20:33;;;;;;;4.80;0.65;;;9.50;99.90;;;;;;6279862;28;20065;-83
2022/11/23 00:23:36;;;;;;;8.30;1.55;;;9.60;99.90;;;;;;6262642;28;20109;-84
2022/11/23 00:26:38;;;;;;;3.50;0.35;;;9.50;99.90;;;;;;6238345;28;20472;-82
2022/11/23 00:29:39;;;;;;;9.95;1.38;;;9.50;99.90;;;;;;6238017;28;20060;-85
2022/11/23 00:32:43;;;;;;;4.15;1.02;;;9.30;99.90;;;;;;6238481;28;20042;-84
2022/11/23 00:35:45;;;;;;;3.35;0.63;;;9.30;99.90;;;;;;6235802;28;20053;-83
2022/11/23 00:38:48;;;;;;;2.47;0.52;;;9.40;99.90;;;;;;6231595;28;20053;-84
2022/11/23 00:41:50;;;;;;;2.17;0.75;;;9.30;99.90;;;;;;6229751;28;20053;-82
2022/11/23 00:44:52;;;;;;;3.33;0.47;;;9.40;99.90;;;;;;6226744;28;20511;-82
2022/11/23 00:47:55;;;;;;;11.77;1.08;;;9.40;99.90;;;;;;6229701;28;20054;-84
2022/11/23 00:50:56;;;;;;;6.28;0.85;;;9.40;99.90;;;;;;6248211;28;20109;-83
2022/11/23 00:53:59;;;;;;;10.38;1.35;;;9.40;99.90;;;;;;6245254;28;20070;-83
2022/11/23 00:57:01;;;;;;;2.00;0.22;;;9.30;99.90;;;;;;6231587;28;20049;-84
2022/11/23 01:00:04;;;;;;;2.40;1.00;;;9.30;99.90;;;;;;6230274;28;20045;-85
2022/11/23 01:03:07;;;;;;;1.83;1.25;;;9.30;99.90;;;;;;6230881;28;20331;-83
2022/11/23 01:06:11;;;;;;;1.50;0.32;;;9.40;99.90;;;;;;6231374;28;20052;-83
2022/11/23 01:09:14;;;;;;;6.80;1.00;;;9.50;99.90;;;;;;6231895;28;20052;-83
2022/11/23 01:12:16;;;;;;;1.17;0.68;;;9.50;99.90;;;;;;6234281;28;20046;-83
2022/11/23 01:15:18;;;;;;;5.78;0.75;;;9.50;99.90;;;;;;6235162;28;20056;-82
2022/11/23 01:18:21;;;;;;;2.75;0.70;;;9.40;99.90;;;;;;6235532;28;20059;-84
2022/11/23 01:21:24;;;;;;;2.67;0.65;;;9.40;99.90;;;;;;6239211;28;20050;-82
2022/11/23 01:24:26;;;;;;;1.33;0.43;;;9.30;99.90;;;;;;6233891;28;20237;-81
2022/11/23 01:27:28;;;;;;;2.70;0.50;;;9.20;99.90;;;;;;6234335;28;20524;-82
2022/11/23 01:30:30;;;;;;;1.92;0.30;;;9.20;99.90;;;;;;6233674;28;20045;-82
2022/11/23 01:33:33;;;;;;;2.10;0.77;;;9.20;99.90;;;;;;6237718;28;20048;-86
2022/11/23 01:36:36;;;;;;;5.28;0.68;;;9.40;99.90;;;;;;6240567;28;20109;-84
2022/11/23 01:39:38;;;;;;;5.15;0.60;;;9.50;99.90;;;;;;6240518;28;20081;-84
2022/11/23 01:42:47;;;;;;;4.43;0.50;;;9.60;99.90;;;;;;6239450;28;20337;-84
2022/11/23 01:45:59;;;;;;;3.08;0.50;;;9.70;99.90;;;;;;6239955;28;20427;-84
2022/11/23 01:49:06;;;;;;;2.33;0.47;;;9.80;99.90;;;;;;6240472;28;20054;-86
2022/11/23 01:52:12;;;;;;;5.65;0.57;;;9.90;99.90;;;;;;6241737;28;20041;-84
2022/11/23 01:55:14;;;;;;;14.43;1.48;;;10.00;99.90;;;;;;6240894;28;20077;-84
2022/11/23 01:58:20;;;;;;;2.03;0.88;;;10.00;99.90;;;;;;6240438;28;20438;-82
2022/11/23 02:01:22;;;;;;;5.78;0.65;;;10.00;99.90;;;;;;6236235;28;20056;-83
2022/11/23 02:04:30;;;;;;;1.42;0.52;;;10.00;99.90;;;;;;6236913;28;20077;-84
2022/11/23 02:07:33;;;;;;;5.45;0.50;;;10.10;99.90;;;;;;6237222;28;20057;-84
2022/11/23 02:13:38;;;;;;;4.55;0.52;;;10.20;99.90;;;;;;6340906;23;20079;-88
2022/11/23 02:16:40;;;;;;;3.67;0.80;;;10.20;99.90;;;;;;6325984;28;20048;-89
2022/11/23 02:19:52;;;;;;;3.90;0.43;;;10.30;99.90;;;;;;6324226;28;20048;-89
2022/11/23 02:23:10;;;;;;;1.38;0.20;;;10.30;99.90;;;;;;6325409;28;20048;-88
2022/11/23 02:26:17;;;;;;;8.13;1.83;;;10.30;99.90;;;;;;6325145;28;20459;-88
2022/11/23 02:29:23;;;;;;;5.15;0.77;;;10.20;99.90;;;;;;6324763;28;20450;-88
2022/11/23 02:32:25;;;;;;;6.07;0.50;;;10.10;99.90;;;;;;6325025;28;20116;-88
2022/11/23 02:35:29;;;;;;;9.65;1.00;;;10.10;99.90;;;;;;6325710;28;20200;-87
2022/11/23 02:38:34;;;;;;;1.48;0.80;;;10.10;99.90;;;;;;6324172;28;20048;-88
2022/11/23 02:41:40;;;;;;;5.43;0.98;;;10.10;99.90;;;;;;6325505;28;20517;-88
2022/11/23 02:44:49;;;;;;;12.98;1.27;;;10.10;99.90;;;;;;6325231;28;20194;-88
2022/11/23 02:47:50;;;;;;;;;;;10.10;99.90;;;;;;6328291;28;20052;-88
2022/11/23 02:50:52;;;;;;;1.48;0.50;;;10.10;99.90;;;;;;6324680;28;20014;-88
2022/11/23 02:53:54;;;;;;;7.55;0.52;;;10.20;99.90;;;;;;6324179;28;20040;-88
2022/11/23 02:56:57;;;;;;;0.93;0.57;;;10.10;99.90;;;;;;6324530;28;20056;-87
2022/11/23 02:59:59;;;;;;;6.93;0.75;;;10.20;99.90;;;;;;6324042;28;20558;-88
2022/11/23 03:03:02;;;;;;;2.45;0.40;;;10.10;99.90;;;;;;6324812;28;20157;-88
2022/11/23 03:06:04;;;;;;;1.83;0.22;;;10.00;99.90;;;;;;6324829;28;20519;-89
2022/11/23 03:09:07;;;;;;;3.28;0.65;;;9.80;99.90;;;;;;6323098;28;20047;-89
2022/11/23 03:12:10;;;;;;;11.73;1.45;;;9.60;99.90;;;;;;6311506;28;20048;-88
2022/11/23 03:15:13;;;;;;;10.20;1.23;;;9.50;99.90;;;;;;6300132;28;20052;-88
2022/11/23 03:18:15;;;;;;;2.55;0.35;;;9.40;99.90;;;;;;6297884;28;20048;-88
2022/11/23 03:21:17;;;;;;;5.38;0.82;;;9.30;99.90;;;;;;6298641;28;20125;-88
2022/11/23 03:24:19;;;;;;;2.13;0.30;;;9.20;99.90;;;;;;6299343;28;20041;-88
2022/11/23 03:27:22;;;;;;;2.20;0.50;;;9.10;99.90;;;;;;6298841;28;20044;-88
2022/11/23 03:30:24;;;;;;;3.17;0.70;;;9.10;99.90;;;;;;6297978;28;20604;-88
2022/11/23 03:33:26;;;;;;;8.98;0.85;;;9.10;99.90;;;;;;6297772;28;20063;-88
2022/11/23 03:36:27;;;;;;;6.70;0.60;;;9.00;99.90;;;;;;6298494;28;20044;-88
2022/11/23 03:39:29;;;;;;;4.88;0.43;;;9.00;99.90;;;;;;6298245;28;20055;-88
2022/11/23 03:42:32;;;;;;;3.05;0.77;;;9.00;99.90;;;;;;6298246;28;20174;-88
2022/11/23 03:45:34;;;;;;;1.75;0.32;;;8.90;99.90;;;;;;6297449;28;20052;-88
2022/11/23 03:48:36;;;;;;;2.42;0.55;;;8.80;99.90;;;;;;6297748;28;20044;-88
2022/11/23 03:51:38;;;;;;;7.25;0.82;;;8.80;99.90;;;;;;6298400;28;20075;-89
2022/11/23 03:54:39;;;;;;;3.13;0.52;;;8.80;99.90;;;;;;6298094;28;20041;-88
2022/11/23 03:57:43;;;;;;;1.33;0.60;;;8.80;99.90;;;;;;6297194;28;20056;-89
2022/11/23 04:00:45;;;;;;;3.25;0.60;;;8.80;99.90;;;;;;6298741;28;20071;-89
2022/11/23 04:03:47;;;;;;;2.60;1.10;;;8.70;99.90;;;;;;6297716;28;20076;-89
2022/11/23 04:06:48;;;;;;;2.80;0.55;;;8.70;99.90;;;;;;6298416;28;20049;-89
2022/11/23 04:09:50;;;;;;;4.63;1.83;;;8.70;99.90;;;;;;6297461;28;20424;-88
2022/11/23 04:12:53;;;;;;;4.68;0.95;;;8.70;99.90;;;;;;6297075;28;20497;-88
2022/11/23 04:15:55;;;;;;;2.80;0.70;;;8.70;99.90;;;;;;6297881;28;20132;-89
2022/11/23 04:18:57;;;;;;;4.07;0.40;;;8.60;99.90;;;;;;6297797;28;20135;-89
2022/11/23 04:21:59;;;;;;;4.35;0.68;;;8.40;99.90;;;;;;6297349;28;20091;-89
2022/11/23 04:25:01;;;;;;;4.30;0.50;;;8.30;99.90;;;;;;6297424;28;20040;-89
2022/11/23 04:28:04;;;;;;;6.53;0.70;;;8.30;99.90;;;;;;6287051;28;20049;-89
2022/11/23 04:31:06;;;;;;;4.15;1.23;;;8.20;99.90;;;;;;6297843;28;20052;-89
2022/11/23 04:34:11;;;;;;;10.98;0.95;;;8.20;99.90;;;;;;6289081;28;20044;-88
2022/11/23 04:37:18;;;;;;;2.85;0.77;;;8.10;99.90;;;;;;6273370;28;20041;-88
2022/11/23 04:40:21;;;;;;;2.42;0.50;;;8.10;99.90;;;;;;6273999;28;20074;-88
2022/11/23 04:43:24;;;;;;;1.27;0.32;;;8.10;99.90;;;;;;6276400;28;20056;-89
2022/11/23 04:46:26;;;;;;;6.03;0.80;;;8.10;99.90;;;;;;6275645;28;20053;-88
2022/11/23 04:49:35;;;;;;;3.30;0.73;;;8.10;99.90;;;;;;6273700;28;20047;-88
2022/11/23 04:52:37;;;;;;;6.15;0.70;;;8.00;99.90;;;;;;6272583;28;20060;-89
2022/11/23 04:55:42;;;;;;;4.88;0.75;;;8.00;99.90;;;;;;6273404;28;20137;-88
2022/11/23 04:58:48;;;;;;;6.63;0.80;;;8.00;99.90;;;;;;6267210;28;20045;-88
2022/11/23 05:01:54;;;;;;;3.38;1.02;;;8.00;99.90;;;;;;6271870;28;20517;-88
2022/11/23 05:04:58;;;;;;;1.70;0.45;;;8.10;99.90;;;;;;6261472;28;20182;-88
2022/11/23 05:08:24;;;;;;;3.10;0.60;;;8.10;99.90;;;;;;6272047;28;20045;-88
2022/11/23 05:11:27;;;;;;;6.88;1.48;;;8.10;99.90;;;;;;6279134;28;20060;-88
2022/11/23 05:14:30;;;;;;;3.95;1.05;;;8.10;99.90;;;;;;6297343;28;20185;-88
2022/11/23 05:17:33;;;;;;;10.63;1.05;;;8.10;99.90;;;;;;6286617;28;20052;-89
2022/11/23 05:20:35;;;;;;;4.72;0.52;;;8.00;99.90;;;;;;6296647;28;20190;-88
2022/11/23 05:23:37;;;;;;;7.55;1.08;;;7.90;99.90;;;;;;6297478;28;20052;-88
2022/11/23 05:26:38;;;;;;;4.90;1.55;;;7.80;99.90;;;;;;6298036;28;20044;-88
2022/11/23 05:29:42;;;;;;;8.15;1.05;;;7.60;99.90;;;;;;6296304;28;20528;-89
2022/11/23 05:32:43;;;;;;;3.00;1.33;;;7.50;99.90;;;;;;6296135;28;20523;-88
2022/11/23 05:35:45;;;;;;;2.28;0.70;;;7.40;99.90;;;;;;6297040;28;20048;-88
2022/11/23 05:38:47;;;;;;;5.35;0.95;;;7.20;99.90;;;;;;6296979;28;20054;-88
2022/11/23 05:41:49;;;;;;;2.90;0.80;;;7.00;99.90;;;;;;6296536;28;20049;-88
2022/11/23 05:44:52;;;;;;;6.85;0.80;;;6.90;99.90;;;;;;6296867;28;20047;-88
2022/11/23 05:47:56;;;;;;;3.47;0.93;;;6.70;99.90;;;;;;6296994;28;20135;-87
2022/11/23 05:50:57;;;;;;;4.38;1.02;;;6.60;99.90;;;;;;6297464;28;20056;-88
2022/11/23 05:54:00;;;;;;;6.13;0.93;;;6.50;99.90;;;;;;6297572;28;20155;-88
2022/11/23 05:57:02;;;;;;;3.92;1.00;;;6.40;99.90;;;;;;6299247;28;20070;-88
2022/11/23 06:00:09;;;;;;;3.20;0.68;;;6.30;99.90;;;;;;6301262;28;20175;-89
2022/11/23 06:03:11;;;;;;;4.60;1.20;;;6.10;99.90;;;;;;6302517;28;20059;-87
2022/11/23 06:06:12;;;;;;;4.05;0.55;;;6.00;99.90;;;;;;6300603;28;20178;-88
2022/11/23 06:09:14;;;;;;;2.97;0.82;;;6.00;99.90;;;;;;6300991;28;20059;-88
2022/11/23 06:12:16;;;;;;;4.03;0.93;;;5.90;99.90;;;;;;6300600;28;20532;-87
2022/11/23 06:15:20;;;;;;;1.30;0.57;;;5.90;99.90;;;;;;6302157;28;20075;-88
2022/11/23 06:18:21;;;;;;;3.50;0.95;;;5.80;99.90;;;;;;6313684;28;20535;-88
2022/11/23 06:21:23;;;;;;;1.67;0.57;;;5.80;99.90;;;;;;6326786;28;20240;-87
2022/11/23 06:24:25;;;;;;;5.88;1.42;;;5.80;99.90;;;;;;6326691;28;20669;-87
2022/11/23 06:27:27;;;;;;;4.90;1.20;;;5.70;99.90;;;;;;6326926;28;20082;-87
2022/11/23 06:30:31;;;;;;;7.50;1.38;;;5.60;99.90;;;;;;6326671;28;20119;-87
2022/11/23 06:33:34;;;;;;;7.45;1.67;;;5.70;99.90;;;;;;6302667;28;20135;-87
2022/11/23 06:36:35;;;;;;;2.53;1.40;;;5.50;99.90;;;;;;6300609;28;20585;-87
2022/11/23 06:39:38;;;;;;;8.43;1.50;;;5.50;99.90;;;;;;6301680;28;20155;-87
2022/11/23 06:42:40;;;;;;;5.00;1.48;;;5.50;99.90;;;;;;6300514;28;20438;-87
2022/11/23 06:45:46;;;;;;;3.05;1.13;;;5.40;99.90;;;;;;6299503;28;20508;-87
2022/11/23 06:48:50;;;;;;;26.88;2.60;;;5.40;99.90;;;;;;6300285;28;20052;-87
2022/11/23 06:51:52;;;;;;;6.57;1.48;;;5.30;99.90;;;;;;6300835;28;20496;-88
2022/11/23 06:54:54;;;;;;;11.52;1.85;;;5.30;99.90;;;;;;6300912;28;20525;-87
2022/11/23 06:57:56;;;;;;;4.60;1.48;;;5.40;99.90;;;;;;6301095;28;20036;-87
2022/11/23 07:01:02;;;;;;;1.98;1.05;;;5.40;99.90;;;;;;6304199;28;20055;-87
2022/11/23 07:04:03;;;;;;;4.55;1.40;;;5.40;99.90;;;;;;6300257;28;20525;-87
2022/11/23 07:07:07;;;;;;;4.82;1.75;;;5.50;99.90;;;;;;6300529;28;20161;-87
2022/11/23 07:10:09;;;;;;;7.20;1.17;;;5.50;99.90;;;;;;6300309;28;20048;-87
2022/11/23 07:13:13;;;;;;;4.72;1.20;;;5.50;99.90;;;;;;6299720;28;20660;-88
2022/11/23 07:16:16;;;;;;;4.50;1.02;;;5.50;99.90;;;;;;6300360;28;20178;-87
2022/11/23 07:19:19;;;;;;;4.88;1.15;;;5.50;99.90;;;;;;6300418;28;20048;-87
2022/11/23 07:22:20;;;;;;;3.65;0.90;;;5.60;99.90;;;;;;6299916;28;20055;-88
2022/11/23 07:25:22;;;;;;;5.25;1.40;;;5.50;99.90;;;;;;6300026;28;20049;-87
2022/11/23 07:28:24;;;;;;;4.38;1.25;;;5.50;99.90;;;;;;6299441;28;20182;-87
2022/11/23 07:31:27;;;;;;;3.67;0.70;;;5.50;99.90;;;;;;6300560;28;20127;-86
2022/11/23 07:34:32;;;;;;;3.13;1.10;;;5.50;99.90;;;;;;6299429;28;20123;-87
2022/11/23 07:37:34;;;;;;;6.00;1.10;;;5.50;99.90;;;;;;6300621;28;20076;-86
2022/11/23 07:40:37;;;;;;;2.22;0.77;;;5.60;99.90;;;;;;6303066;28;20051;-87
2022/11/23 07:43:38;;;;;;;5.40;1.10;;;5.60;99.90;;;;;;6260139;28;20052;-87
2022/11/23 07:46:45;;;;;;;6.43;1.25;;;5.70;99.90;;;;;;6291934;28;20199;-87
2022/11/23 07:49:50;;;;;;;5.63;1.27;;;5.80;99.90;;;;;;6303804;28;20064;-86
2022/11/23 07:52:52;;;;;;;17.17;1.40;;;5.90;99.90;;;;;;6302391;28;20400;-88
2022/11/23 07:56:02;;;;;;;3.67;0.95;;;6.00;99.90;;;;;;6313360;28;20044;-88
2022/11/23 07:59:04;;;;;;;6.57;1.52;;;6.20;99.90;;;;;;6323563;28;20127;-87
2022/11/23 08:02:12;;;;;;;5.75;1.80;;;6.40;99.90;;;;;;6325285;28;20078;-88
2022/11/23 08:05:14;;;;;;;7.63;1.45;;;6.60;99.90;;;;;;6324841;28;20117;-87
2022/11/23 08:08:27;;;;;;;10.05;2.08;;;6.90;99.90;;;;;;6323955;28;20177;-87
2022/11/23 08:11:28;;;;;;;7.28;1.80;;;7.20;99.90;;;;;;6322073;28;20050;-86
2022/11/23 08:14:30;;;;;;;7.10;2.05;;;7.60;99.90;;;;;;6288390;28;20077;-86
2022/11/23 08:17:34;;;;;;;12.60;2.50;;;8.00;99.90;;;;;;6288683;28;20210;-86
2022/11/23 08:20:35;;;;;;;11.98;4.32;;;8.30;99.90;;;;;;6297452;28;20681;-85
2022/11/23 08:23:37;;;;;;;6.25;1.77;;;8.70;99.90;;;;;;6299928;28;20131;-86
2022/11/23 08:26:39;;;;;;;9.48;1.52;;;9.00;99.90;;;;;;6298553;28;20409;-86
2022/11/23 08:29:41;;;;;;;3.05;1.42;;;9.30;99.90;;;;;;6297783;28;20177;-86
2022/11/23 08:32:44;;;;;;;6.95;2.45;;;9.60;99.90;;;;;;6298535;28;20497;-86
2022/11/23 08:35:46;;;;;;;1.25;0.68;;;9.90;99.90;;;;;;6298190;28;20040;-86
2022/11/23 08:38:50;;;;;;;1.77;0.73;;;10.30;99.90;;;;;;6282632;28;20418;-87
2022/11/23 08:57:55;;;;;;;5.38;2.45;;;12.50;99.90;;;;;;6390027;27;20061;-85
2022/11/23 09:01:56;;;;;;;5.88;1.92;;;13.00;99.90;;;;;;6353724;27;20530;-85
2022/11/23 09:05:26;;;;;;;6.50;1.70;;;13.40;99.90;;;;;;6318795;28;20590;-85
2022/11/23 09:08:28;;;;;;;2.00;0.98;;;13.80;99.90;;;;;;6317443;28;20048;-86
2022/11/23 09:51:59;;;;;;;3.88;0.63;;;17.40;99.90;;;;;;6161645;28;20182;-85
2022/11/23 10:11:45;;;;;;;3.28;0.40;;;18.50;98.80;;;;;;6268497;28;20124;-85
2022/11/23 10:55:26;;;;;;;3.42;0.43;;;20.30;91.90;;;;;;6144941;29;20055;-84
2022/11/23 10:58:33;;;;;;;2.20;0.43;;;20.30;91.40;;;;;;6143191;28;20187;-84
2022/11/23 11:02:41;;;;;;;5.20;0.70;;;20.30;85.50;;;;;;6173683;28;20058;-86
2022/11/23 11:18:03;;;;;;;5.00;0.73;;;20.50;89.00;;;;;;6223870;28;20042;-84
2022/11/23 11:25:47;;;;;;;2.53;0.60;;;20.90;85.90;;;;;;6116519;29;20044;-85
2022/11/23 11:28:50;;;;;;;;;;;21.00;84.50;;;;;;6131150;28;20057;-85
2022/11/23 11:31:59;;;;;;;6.00;1.10;;;21.30;89.80;;;;;;6223492;28;20510;-85
2022/11/23 11:35:11;;;;;;;5.05;0.85;;;21.70;84.60;;;;;;6276170;28;20571;-85
2022/11/23 11:38:18;;;;;;;8.77;1.23;;;22.00;82.20;;;;;;6274410;28;20094;-84
2022/11/23 11:41:24;;;;;;;6.47;0.82;;;22.40;81.10;;;;;;6275098;28;20045;-86
2022/11/23 11:44:27;;;;;;;8.20;0.65;;;22.70;78.50;;;;;;6275535;28;20049;-86
2022/11/23 11:47:32;;;;;;;6.00;0.60;;;23.00;76.80;;;;;;6275026;28;20640;-87
2022/11/23 11:50:42;;;;;;;10.25;0.70;;;23.30;74.90;;;;;;6275324;28;20049;-87
2022/11/23 11:53:51;;;;;;;2.67;0.55;;;23.50;73.30;;;;;;6274755;28;20396;-85
2022/11/23 11:56:57;;;;;;;5.20;0.73;;;23.60;71.70;;;;;;6274591;28;20132;-85
2022/11/23 12:00:01;;;;;;;5.03;1.00;;;23.80;70.60;;;;;;6275976;28;20053;-86
2022/11/23 12:03:10;;;;;;;5.00;0.70;;;23.90;68.70;;;;;;6274899;28;20387;-87
2022/11/23 12:06:20;;;;;;;3.53;0.52;;;23.90;66.50;;;;;;6274170;28;20049;-85
2022/11/23 12:09:28;;;;;;;4.03;0.98;;;23.80;64.60;;;;;;6274760;28;20053;-87
2022/11/23 12:12:30;;;;;;;;;;;23.80;63.50;;;;;;6271546;28;20041;-84
2022/11/23 12:15:37;;;;;;;5.38;1.30;;;23.90;67.40;;;;;;6275452;28;19931;-88
2022/11/23 12:19:07;;;;;;;2.90;0.60;;;24.00;63.50;;;;;;6273763;28;20461;-85
2022/11/23 12:22:36;;;;;;;6.82;1.23;;;24.00;61.90;;;;;;6274319;28;20049;-87
2022/11/23 12:25:41;;;;;;;4.63;0.80;;;24.00;59.70;;;;;;6275042;28;20044;-87
2022/11/23 12:28:58;;;;;;;1.55;0.57;;;24.00;58.40;;;;;;6273619;28;20101;-87
2022/11/23 12:32:11;;;;;;;3.42;0.68;;;23.90;57.70;;;;;;6274107;28;20051;-85
2022/11/23 12:35:38;;;;;;;1.70;0.43;;;24.00;56.80;;;;;;6275050;28;20507;-86
2022/11/23 12:38:49;;;;;;;4.97;0.90;;;24.00;56.30;;;;;;6248370;28;20042;-86
2022/11/23 12:41:56;;;;;;;1.95;0.35;;;24.00;54.80;;;;;;6249869;28;20071;-86
2022/11/23 12:45:22;;;;;;;4.10;0.70;;;23.80;54.30;;;;;;6274542;28;20128;-87
2022/11/23 12:48:37;;;;;;;6.40;0.80;;;23.70;54.70;;;;;;6273298;28;20128;-85
2022/11/23 12:51:50;;;;;;;1.90;0.63;;;23.90;54.20;;;;;;6273072;28;20514;-88
2022/11/23 12:55:07;;;;;;;3.05;0.60;;;24.20;53.70;;;;;;6250014;28;20057;-88
2022/11/23 12:58:16;;;;;;;12.23;2.80;;;24.40;52.50;;;;;;6260094;28;20046;-86
2022/11/23 13:01:26;;;;;;;3.85;0.85;;;24.20;50.80;;;;;;6249241;28;20134;-87
2022/11/23 13:04:52;;;;;;;2.30;0.50;;;24.10;50.40;;;;;;6249499;28;20092;-87
2022/11/23 13:08:31;;;;;;;1.00;0.30;;;24.10;51.00;;;;;;6248403;28;20081;-87
2022/11/23 13:11:59;;;;;;;4.80;0.40;;;24.00;50.40;;;;;;6250447;28;20084;-87
2022/11/23 13:15:31;;;;;;;2.90;0.25;;;23.70;49.80;;;;;;6265429;28;20198;-87
2022/11/23 13:18:48;;;;;;;3.95;0.50;;;22.90;50.70;;;;;;6273904;28;20045;-88
2022/11/23 13:21:50;;;;;;;3.35;0.73;;;22.80;51.00;;;;;;6273939;28;20045;-87
2022/11/23 13:25:02;;;;;;;2.55;0.40;;;22.80;50.80;;;;;;6274187;28;20294;-87
2022/11/23 13:28:37;;;;;;;2.38;0.50;;;22.50;50.50;;;;;;6273077;28;20052;-87
2022/11/23 13:31:39;;;;;;;3.97;0.40;;;22.00;50.80;;;;;;6275237;28;20056;-87
2022/11/23 13:34:50;;;;;;;6.03;0.57;;;21.70;50.70;;;;;;6273530;28;20045;-87
2022/11/23 13:38:41;;;;;;;6.15;1.17;;;21.10;50.90;;;;;;6272078;28;20053;-88
2022/11/23 13:42:21;;;;;;;1.88;0.38;;;20.80;51.90;;;;;;6273079;28;20251;-88
2022/11/23 13:45:35;;;;;;;6.18;1.02;;;20.50;51.70;;;;;;6256458;28;20473;-87
2022/11/23 13:48:43;;;;;;;2.65;0.85;;;19.90;52.20;;;;;;6272660;28;20418;-87
2022/11/23 13:52:35;;;;;;;1.75;0.45;;;19.20;53.20;;;;;;6263439;28;20056;-87
2022/11/23 13:55:38;;;;;;;3.50;0.80;;;18.90;54.80;;;;;;6274221;28;20048;-87
2022/11/23 13:58:40;;;;;;;1.50;0.40;;;19.20;55.10;;;;;;6272764;28;20048;-86
2022/11/23 14:02:23;;;;;;;3.05;0.32;;;19.40;54.60;;;;;;6274748;28;20184;-86
2022/11/23 14:05:57;;;;;;;1.88;0.30;;;19.60;54.10;;;;;;6273201;28;20139;-86
2022/11/23 14:09:04;;;;;;;1.58;0.60;;;19.90;54.10;;;;;;6272234;28;20055;-87
2022/11/23 14:12:45;;;;;;;4.35;0.65;;;20.20;53.70;;;;;;6270471;28;20186;-87
2022/11/23 14:16:13;;;;;;;1.48;0.50;;;20.10;53.30;;;;;;6268943;28;20083;-88
2022/11/23 14:20:06;;;;;;;1.90;0.70;;;20.00;53.50;;;;;;6235661;28;20449;-87
2022/11/23 14:23:37;;;;;;;3.78;0.68;;;19.90;53.50;;;;;;6243063;28;20048;-85
2022/11/23 14:26:49;;;;;;;5.70;0.50;;;19.60;53.60;;;;;;6272859;28;20045;-87
2022/11/23 14:30:23;;;;;;;2.38;0.40;;;19.20;54.10;;;;;;6273941;28;20053;-87
2022/11/23 14:33:54;;;;;;;4.05;0.73;;;18.80;54.60;;;;;;6276150;28;20160;-86
2022/11/23 14:37:03;;;;;;;0.88;0.40;;;18.40;55.40;;;;;;6272722;28;20045;-87
2022/11/23 14:40:20;;;;;;;2.90;0.25;;;17.90;56.00;;;;;;6277443;28;20060;-87
2022/11/23 14:43:22;;;;;;;2.50;0.35;;;17.50;57.10;;;;;;6274071;28;20206;-87
2022/11/23 14:46:24;;;;;;;3.63;0.50;;;17.10;57.80;;;;;;6273715;28;20135;-87
2022/11/23 14:49:26;;;;;;;2.10;0.52;;;16.70;58.50;;;;;;6273342;28;20170;-87
2022/11/23 14:52:32;;;;;;;6.47;0.98;;;16.40;59.50;;;;;;6274538;28;20041;-87
2022/11/23 14:55:35;;;;;;;5.80;0.93;;;16.10;60.40;;;;;;6274202;28;20512;-87
2022/11/23 14:58:37;;;;;;;8.05;0.98;;;15.80;60.90;;;;;;6272426;28;20521;-86
2022/11/23 15:01:51;;;;;;;2.00;0.60;;;15.50;61.30;;;;;;6276615;28;20132;-89
2022/11/23 15:05:01;;;;;;;8.07;0.73;;;15.10;62.30;;;;;;6291923;28;20121;-87
2022/11/23 15:08:12;;;;;;;1.73;0.43;;;14.80;62.90;;;;;;6298734;28;20032;-86
2022/11/23 15:11:20;;;;;;;2.88;0.60;;;14.60;63.50;;;;;;6296599;28;20053;-86
2022/11/23 15:14:29;;;;;;;2.13;0.60;;;14.40;64.20;;;;;;6285988;28;20045;-89
2022/11/23 15:17:32;;;;;;;14.27;4.80;;;14.30;64.60;;;;;;6268396;28;20052;-86
2022/11/23 15:20:41;;;;;;;7.88;2.08;;;14.00;65.10;;;;;;6259982;28;20127;-86
2022/11/23 15:23:46;;;;;;;6.43;1.67;;;13.90;65.80;;;;;;6259646;28;20121;-86
2022/11/23 15:26:49;;;;;;;2.72;0.60;;;13.70;66.40;;;;;;6258977;28;20124;-87
2022/11/23 15:29:53;;;;;;;1.58;0.47;;;13.60;67.00;;;;;;6259806;28;20068;-86
2022/11/23 15:32:57;;;;;;;4.53;1.10;;;13.50;67.30;;;;;;6257565;28;20069;-86
2022/11/23 15:35:59;;;;;;;1.48;0.45;;;13.50;68.00;;;;;;6287645;28;20049;-86
2022/11/23 15:39:04;;;;;;;3.72;0.60;;;13.50;68.40;;;;;;6283365;28;20041;-86
2022/11/23 15:42:19;;;;;;;1.25;0.40;;;13.50;68.70;;;;;;6279987;28;20041;-86
2022/11/23 15:45:37;;;;;;;5.90;0.50;;;13.50;69.20;;;;;;6265301;28;20052;-84
2022/11/23 15:48:49;;;;;;;3.20;0.63;;;13.50;69.60;;;;;;6275668;28;20510;-85
2022/11/23 15:52:37;;;;;;;5.88;2.13;;;13.50;69.70;;;;;;6276382;28;20045;-85
2022/11/23 15:55:39;;;;;;;1.63;0.32;;;13.40;70.30;;;;;;6284098;28;20063;-85
2022/11/23 15:58:48;;;;;;;2.72;0.63;;;13.40;70.60;;;;;;6275269;28;20055;-85
2022/11/23 16:01:53;;;;;;;2.88;0.80;;;13.30;71.20;;;;;;6276181;28;20399;-86
2022/11/23 16:08:56;;;;;;;;;;;;;;;;;;;;;
2022/11/23 16:12:04;;;;;;;3.08;1.08;;;13.20;72.30;;;;;;6274516;28;20051;-86
2022/11/23 16:15:32;;;;;;;4.10;1.52;;;13.10;72.60;;;;;;6277130;28;20032;-85
2022/11/23 16:18:34;;;;;;;4.28;0.80;;;13.00;73.50;;;;;;6274452;28;20045;-86
2022/11/23 16:21:36;;;;;;;4.05;2.15;;;12.80;74.00;;;;;;6265753;28;20053;-85
2022/11/23 16:24:45;;;;;;;1.63;0.50;;;12.60;75.00;;;;;;6275535;28;20045;-85
2022/11/23 16:27:59;;;;;;;8.30;1.02;;;12.30;76.50;;;;;;6264465;28;20068;-86
2022/11/23 16:31:03;;;;;;;3.28;0.80;;;11.80;78.50;;;;;;6274602;28;20057;-86
2022/11/23 16:34:10;;;;;;;7.55;1.00;;;11.50;79.60;;;;;;6274564;28;20167;-87
2022/11/23 16:37:14;;;;;;;2.83;0.52;;;11.40;81.00;;;;;;6276944;28;20068;-87
2022/11/23 16:40:16;;;;;;;4.22;0.80;;;11.30;82.10;;;;;;6275040;28;20493;-86
2022/11/23 16:43:26;;;;;;;2.75;0.68;;;11.20;82.60;;;;;;6276645;28;20141;-87
2022/11/23 16:46:38;;;;;;;3.72;1.02;;;11.20;83.20;;;;;;6276999;28;20186;-86
2022/11/23 16:49:54;;;;;;;3.30;0.70;;;11.20;83.70;;;;;;6277106;28;20056;-86
2022/11/23 16:53:13;;;;;;;4.13;0.70;;;11.20;84.10;;;;;;6264366;28;20123;-86
2022/11/23 17:00:03;;;;;;;15.07;3.65;;;11.20;85.10;;;;;;6216676;28;20075;-85
2022/11/23 17:03:06;;;;;;;13.13;1.60;;;11.20;85.70;;;;;;6274562;28;20045;-87
2022/11/23 17:13:30;;;;;;;;;;;10.80;88.60;;;;;;6271493;28;20053;-86
2022/11/23 17:16:53;;;;;;;;;;;;;;;;;;;;;
2022/11/23 17:20:03;;;;;;;2.90;0.95;;;10.60;90.00;;;;;;6254769;28;20470;-85
2022/11/23 17:23:23;;;;;;;4.53;1.33;;;10.60;90.50;;;;;;6275387;28;20128;-85
2022/11/23 17:26:49;;;;;;;3.83;0.93;;;10.50;91.00;;;;;;6263878;28;20128;-86
2022/11/23 17:29:57;;;;;;;3.17;1.05;;;10.50;91.30;;;;;;6275583;28;20109;-86
2022/11/23 17:32:59;;;;;;;9.00;1.48;;;10.60;91.60;;;;;;6277879;28;20041;-86
2022/11/23 17:36:03;;;;;;;6.97;1.67;;;10.60;91.80;;;;;;6273370;28;20060;-86
2022/11/23 17:39:05;;;;;;;2.78;0.77;;;10.60;91.90;;;;;;6273592;28;20065;-86
2022/11/23 17:42:11;;;;;;;10.85;6.30;;;10.60;92.20;;;;;;6269544;28;20053;-87
2022/11/23 17:45:13;;;;;;;1.92;0.65;;;10.60;92.40;;;;;;6258481;28;20053;-86
2022/11/23 17:48:16;;;;;;;3.50;1.05;;;10.60;92.80;;;;;;6272479;28;20102;-85
2022/11/23 17:51:19;;;;;;;4.13;1.13;;;10.60;93.00;;;;;;6272215;28;20049;-86
2022/11/23 17:54:21;;;;;;;5.55;1.30;;;10.60;93.10;;;;;;6272220;28;20102;-85
2022/11/23 17:57:25;;;;;;;8.15;2.85;;;10.60;93.30;;;;;;6272894;28;20132;-86
2022/11/23 18:00:29;;;;;;;2.92;1.60;;;10.60;93.50;;;;;;6272403;28;20044;-86
2022/11/23 18:03:30;;;;;;;10.05;3.17;;;10.70;93.70;;;;;;6273673;28;20147;-85
2022/11/23 18:06:33;;;;;;;8.75;3.90;;;10.70;93.90;;;;;;6272714;28;20051;-86
2022/11/23 18:09:35;;;;;;;11.02;4.13;;;10.70;94.10;;;;;;6273560;28;20049;-85
2022/11/23 18:12:38;;;;;;;5.30;1.85;;;10.70;94.20;;;;;;6273440;28;20045;-86
2022/11/23 18:16:28;;;;;;;17.45;1.42;;;10.80;94.40;;;;;;6275458;28;20052;-86
2022/11/23 18:19:30;;;;;;;5.05;1.35;;;10.60;94.70;;;;;;6262135;28;20434;-85
2022/11/23 18:22:45;;;;;;;6.07;1.30;;;10.60;94.90;;;;;;6248951;28;20049;-84
2022/11/23 18:25:58;;;;;;;8.05;1.48;;;10.50;95.10;;;;;;6237232;28;20041;-85
2022/11/23 18:29:00;;;;;;;6.70;1.35;;;10.50;95.30;;;;;;6264299;28;20049;-84
2022/11/23 18:32:11;;;;;;;9.73;1.40;;;10.50;95.60;;;;;;6261197;28;20076;-86
2022/11/23 18:35:14;;;;;;;7.28;1.20;;;10.50;95.80;;;;;;6272022;28;20051;-85
2022/11/23 18:38:28;;;;;;;2.55;1.33;;;10.40;96.30;;;;;;6274916;28;20055;-87
2022/11/23 18:48:26;;;;;;;1.58;0.85;;;10.30;97.60;;;;;;6275986;28;20053;-85
2022/11/23 18:51:27;;;;;;;3.17;1.20;;;10.30;97.90;;;;;;6279041;28;20059;-84
2022/11/23 18:54:31;;;;;;;7.95;1.52;;;10.40;98.20;;;;;;6277782;28;20505;-85
2022/11/23 18:57:47;;;;;;;4.00;1.38;;;10.30;98.40;;;;;;6277662;28;20092;-85
2022/11/23 19:04:50;;;;;;;2.17;1.10;;;10.40;99.30;;;;;;6273908;28;20131;-85